Time;durP1;ratioP1;P1;durP2;ratioP2;P2;SDS_P1;SDS_P2;PMS_P1;PMS_P2;Temp;Humidity;BMP_temperature;BMP_pressure;BME280_temperature;BME280_humidity;BME280_pressure;Samples;Min_cycle;Max_cycle;Signal;HPM_P1;HPM_P2
2023/06/18 00:00:11;;;;;;;15.70;13.60;;;26.10;53.50;;;;;;5054452;28;20505;-78
2023/06/18 00:02:39;;;;;;;16.43;13.50;;;26.10;53.70;;;;;;5061273;28;20412;-79
2023/06/18 00:05:08;;;;;;;17.03;13.10;;;26.10;53.60;;;;;;5055397;28;20425;-79
2023/06/18 00:07:36;;;;;;;16.30;12.93;;;26.10;53.50;;;;;;5067349;28;20485;-79
2023/06/18 00:10:04;;;;;;;19.50;14.37;;;26.10;53.60;;;;;;5067640;28;20416;-79
2023/06/18 00:12:32;;;;;;;15.77;13.10;;;26.00;53.60;;;;;;5056956;28;20500;-79
2023/06/18 00:15:02;;;;;;;17.87;13.47;;;26.00;53.70;;;;;;5061717;28;20478;-79
2023/06/18 00:17:30;;;;;;;17.30;13.53;;;26.00;53.80;;;;;;5054353;28;20453;-78
2023/06/18 00:19:59;;;;;;;15.63;13.00;;;25.90;53.90;;;;;;5061358;28;20469;-78
2023/06/18 00:22:27;;;;;;;18.13;13.87;;;26.00;54.10;;;;;;5055636;28;20520;-78
2023/06/18 00:24:55;;;;;;;16.40;14.60;;;25.90;53.90;;;;;;5071089;28;20511;-79
2023/06/18 00:27:23;;;;;;;19.63;14.53;;;26.00;53.80;;;;;;5055081;28;20477;-78
2023/06/18 00:29:51;;;;;;;18.43;14.20;;;26.00;53.90;;;;;;5063584;28;20477;-78
2023/06/18 00:32:21;;;;;;;18.27;14.07;;;25.90;54.00;;;;;;5057350;28;20503;-79
2023/06/18 00:34:53;;;;;;;17.23;14.10;;;25.90;53.80;;;;;;5067771;28;20466;-78
2023/06/18 00:37:21;;;;;;;19.90;14.93;;;25.90;53.50;;;;;;5061021;28;20460;-78
2023/06/18 00:39:49;;;;;;;17.77;13.63;;;25.90;54.20;;;;;;5068783;28;20533;-79
2023/06/18 00:42:18;;;;;;;23.17;14.57;;;25.80;54.10;;;;;;5066373;28;20452;-78
2023/06/18 00:44:46;;;;;;;18.03;15.00;;;25.80;54.20;;;;;;5072666;28;20525;-78
2023/06/18 00:47:14;;;;;;;20.20;14.80;;;25.80;54.10;;;;;;5064759;28;20886;-79
2023/06/18 00:49:44;;;;;;;18.40;14.60;;;25.70;54.20;;;;;;5058401;28;20412;-79
2023/06/18 00:52:13;;;;;;;18.03;14.30;;;25.70;54.20;;;;;;5062043;28;20467;-79
2023/06/18 00:54:44;;;;;;;19.23;14.40;;;25.50;54.30;;;;;;5070358;28;20504;-79
2023/06/18 00:57:13;;;;;;;18.23;15.03;;;25.50;54.90;;;;;;5057944;28;20894;-79
2023/06/18 00:59:43;;;;;;;17.50;13.40;;;25.50;55.00;;;;;;5066395;28;20450;-79
2023/06/18 01:02:12;;;;;;;17.47;14.27;;;25.50;54.60;;;;;;5073880;28;20415;-79
2023/06/18 01:04:45;;;;;;;17.33;14.00;;;25.50;55.00;;;;;;5061219;28;20445;-79
2023/06/18 01:07:13;;;;;;;16.70;14.37;;;25.50;54.80;;;;;;5077807;28;20476;-80
2023/06/18 01:09:52;;;;;;;18.70;14.80;;;25.40;54.70;;;;;;5063785;28;20529;-80
2023/06/18 01:12:21;;;;;;;16.53;13.70;;;25.40;54.60;;;;;;5073054;28;20428;-80
2023/06/18 01:14:51;;;;;;;16.27;13.87;;;25.40;55.10;;;;;;5081950;28;20566;-80
2023/06/18 01:17:20;;;;;;;16.63;13.97;;;25.40;55.10;;;;;;5097428;28;20490;-80
2023/06/18 01:19:51;;;;;;;19.23;14.50;;;25.40;55.20;;;;;;5080929;28;20465;-80
2023/06/18 01:22:24;;;;;;;19.30;14.90;;;25.50;55.00;;;;;;5078910;28;20454;-80
2023/06/18 01:24:54;;;;;;;17.13;14.10;;;25.50;54.70;;;;;;5090411;28;20446;-80
2023/06/18 01:27:24;;;;;;;17.50;13.70;;;25.50;55.00;;;;;;5080264;28;20436;-80
2023/06/18 01:29:52;;;;;;;19.63;14.03;;;25.40;55.20;;;;;;5069750;28;20412;-80
2023/06/18 01:32:21;;;;;;;17.77;14.10;;;25.40;55.30;;;;;;5078167;28;20453;-80
2023/06/18 01:34:53;;;;;;;30.43;24.10;;;25.50;55.40;;;;;;5074256;28;20623;-80
2023/06/18 01:37:33;;;;;;;133.87;93.83;;;25.50;55.40;;;;;;5078033;28;20854;-80
2023/06/18 01:40:08;;;;;;;77.20;53.03;;;25.40;55.20;;;;;;5074592;28;21034;-80
2023/06/18 01:42:38;;;;;;;99.27;68.67;;;25.40;56.10;;;;;;5061351;28;20554;-80
2023/06/18 01:45:08;;;;;;;67.30;46.27;;;25.40;56.10;;;;;;5074194;28;20424;-80
2023/06/18 01:47:36;;;;;;;62.47;43.87;;;25.40;56.10;;;;;;5080731;28;20435;-80
2023/06/18 01:50:06;;;;;;;65.50;47.37;;;25.40;56.00;;;;;;5074350;28;20433;-80
2023/06/18 01:52:35;;;;;;;77.37;51.13;;;25.40;56.10;;;;;;5082695;28;20424;-80
2023/06/18 01:55:03;;;;;;;72.63;49.23;;;25.50;56.20;;;;;;5075847;28;20417;-80
2023/06/18 01:57:32;;;;;;;64.17;44.83;;;25.60;56.20;;;;;;5075937;28;20474;-80
2023/06/18 02:00:02;;;;;;;67.60;45.13;;;25.50;56.30;;;;;;5074377;28;20559;-80
2023/06/18 02:02:30;;;;;;;69.50;45.17;;;25.50;56.20;;;;;;5065513;28;20457;-80
2023/06/18 02:04:58;;;;;;;90.47;58.40;;;25.50;56.60;;;;;;5080827;28;20446;-80
2023/06/18 02:07:27;;;;;;;62.50;43.70;;;25.40;56.40;;;;;;5080944;28;20474;-80
2023/06/18 02:09:56;;;;;;;63.17;42.63;;;25.40;56.90;;;;;;5081794;28;20436;-81
2023/06/18 02:12:24;;;;;;;56.23;38.40;;;25.40;57.30;;;;;;5080153;28;20442;-80
2023/06/18 02:14:52;;;;;;;57.20;38.57;;;25.40;57.40;;;;;;5075123;28;20445;-81
2023/06/18 02:17:20;;;;;;;50.57;35.67;;;25.40;57.10;;;;;;5085195;28;20437;-81
2023/06/18 02:19:48;;;;;;;45.17;32.10;;;25.40;57.30;;;;;;5086266;28;20507;-80
2023/06/18 02:22:17;;;;;;;41.13;30.67;;;25.40;57.30;;;;;;5080386;28;20474;-81
2023/06/18 02:24:46;;;;;;;48.33;33.20;;;25.40;57.20;;;;;;5080794;28;20466;-80
2023/06/18 02:27:14;;;;;;;55.73;37.90;;;25.40;57.00;;;;;;5080046;28;20449;-81
2023/06/18 02:29:43;;;;;;;46.10;30.93;;;25.30;57.10;;;;;;5080182;28;20424;-80
2023/06/18 02:32:11;;;;;;;39.90;27.90;;;25.30;57.40;;;;;;5073807;28;20492;-79
2023/06/18 02:34:40;;;;;;;38.50;27.23;;;25.30;57.60;;;;;;5076807;28;20436;-80
2023/06/18 02:37:08;;;;;;;34.90;24.67;;;25.30;57.60;;;;;;5074406;28;20499;-80
2023/06/18 02:39:36;;;;;;;30.40;22.40;;;25.40;57.50;;;;;;5078914;28;20932;-80
2023/06/18 02:42:09;;;;;;;28.93;22.20;;;25.40;57.10;;;;;;5077382;28;20462;-80
2023/06/18 02:44:39;;;;;;;29.30;20.57;;;25.50;57.10;;;;;;5070794;28;20448;-80
2023/06/18 02:47:07;;;;;;;30.20;22.33;;;25.40;56.70;;;;;;5078525;28;20416;-80
2023/06/18 02:49:36;;;;;;;33.93;23.70;;;25.40;56.60;;;;;;5096402;28;20416;-80
2023/06/18 02:52:05;;;;;;;26.00;19.60;;;25.30;56.40;;;;;;5075761;28;20473;-80
2023/06/18 02:54:33;;;;;;;23.90;18.03;;;25.30;57.30;;;;;;5084294;28;20528;-80
2023/06/18 02:57:01;;;;;;;25.17;18.10;;;25.30;57.50;;;;;;5088682;28;20437;-80
2023/06/18 02:59:31;;;;;;;22.93;17.20;;;25.30;57.20;;;;;;5075246;28;20459;-80
2023/06/18 03:02:00;;;;;;;22.40;17.27;;;25.30;57.40;;;;;;5067896;28;20468;-80
2023/06/18 03:04:28;;;;;;;25.20;18.43;;;25.40;57.20;;;;;;5081404;28;21043;-80
2023/06/18 03:06:58;;;;;;;23.67;17.17;;;25.40;57.10;;;;;;5069608;28;20438;-80
2023/06/18 03:09:28;;;;;;;29.07;20.80;;;25.40;57.20;;;;;;5082362;28;20496;-80
2023/06/18 03:11:55;;;;;;;29.27;21.57;;;25.40;57.20;;;;;;5079600;28;20468;-80
2023/06/18 03:14:25;;;;;;;28.33;19.17;;;25.40;57.20;;;;;;5079466;28;20440;-80
2023/06/18 03:16:56;;;;;;;23.80;16.80;;;25.40;57.00;;;;;;5080463;28;20444;-80
2023/06/18 03:19:24;;;;;;;20.20;15.47;;;25.40;56.90;;;;;;5088215;28;20418;-80
2023/06/18 03:21:53;;;;;;;22.30;15.67;;;25.40;57.00;;;;;;5075500;28;20497;-80
2023/06/18 03:24:22;;;;;;;19.93;15.00;;;25.50;57.00;;;;;;5080696;28;20543;-80
2023/06/18 03:26:50;;;;;;;17.47;13.70;;;25.50;57.00;;;;;;5068794;28;20507;-80
2023/06/18 03:29:18;;;;;;;17.27;12.70;;;25.50;57.00;;;;;;5065025;28;20432;-80
2023/06/18 03:31:46;;;;;;;17.57;12.80;;;25.50;56.80;;;;;;5067402;28;20435;-80
2023/06/18 03:34:16;;;;;;;15.00;10.97;;;25.50;56.90;;;;;;5076651;28;20496;-80
2023/06/18 03:36:47;;;;;;;14.97;11.70;;;25.50;57.00;;;;;;5075114;28;20450;-80
2023/06/18 03:39:16;;;;;;;16.23;11.87;;;25.50;57.00;;;;;;5072825;28;20434;-80
2023/06/18 03:41:44;;;;;;;14.33;11.20;;;25.40;56.70;;;;;;5076670;28;20539;-80
2023/06/18 03:44:12;;;;;;;14.47;10.90;;;25.40;56.80;;;;;;5077304;28;20500;-80
2023/06/18 03:46:40;;;;;;;15.93;11.40;;;25.40;56.70;;;;;;5082425;28;20425;-80
2023/06/18 03:49:08;;;;;;;14.87;10.90;;;25.40;56.60;;;;;;5062717;28;20495;-80
2023/06/18 03:51:37;;;;;;;13.50;10.00;;;25.40;57.10;;;;;;5054645;28;20444;-77
2023/06/18 03:54:06;;;;;;;15.77;11.23;;;25.40;57.10;;;;;;5061823;28;20855;-80
2023/06/18 03:56:34;;;;;;;14.00;10.40;;;25.40;57.20;;;;;;5076535;28;20457;-80
2023/06/18 03:59:01;;;;;;;13.93;10.70;;;25.40;57.10;;;;;;5076552;28;20524;-79
2023/06/18 04:01:30;;;;;;;16.00;9.70;;;25.40;56.80;;;;;;5075921;28;20487;-80
2023/06/18 04:03:57;;;;;;;11.10;9.33;;;25.40;56.80;;;;;;5068773;28;20806;-80
2023/06/18 04:06:27;;;;;;;11.87;9.60;;;25.40;57.00;;;;;;5091800;28;20456;-80
2023/06/18 04:08:56;;;;;;;11.27;9.60;;;25.50;56.80;;;;;;5077526;28;20424;-80
2023/06/18 04:11:24;;;;;;;12.20;10.17;;;25.50;56.90;;;;;;5081828;28;20921;-80
2023/06/18 04:13:53;;;;;;;12.40;9.97;;;25.50;56.70;;;;;;5078722;28;20469;-80
2023/06/18 04:16:21;;;;;;;13.27;10.70;;;25.40;56.70;;;;;;5087451;28;20516;-80
2023/06/18 04:18:49;;;;;;;14.67;11.30;;;25.40;57.30;;;;;;5066882;28;20445;-80
2023/06/18 04:21:17;;;;;;;13.50;10.80;;;25.40;56.70;;;;;;5067868;28;20459;-80
2023/06/18 04:23:45;;;;;;;13.33;10.00;;;25.40;56.50;;;;;;5064920;28;20462;-80
2023/06/18 04:26:14;;;;;;;13.50;10.70;;;25.40;56.80;;;;;;5084267;28;20469;-80
2023/06/18 04:28:41;;;;;;;12.93;10.47;;;25.50;56.70;;;;;;5078490;28;20468;-80
2023/06/18 04:31:10;;;;;;;12.30;10.50;;;25.50;56.90;;;;;;5072685;28;20437;-80
2023/06/18 04:33:38;;;;;;;12.23;10.13;;;25.50;56.80;;;;;;5068251;28;20489;-80
2023/06/18 04:36:06;;;;;;;13.70;10.90;;;25.50;56.80;;;;;;5078413;28;20450;-80
2023/06/18 04:38:34;;;;;;;14.50;11.47;;;25.50;56.90;;;;;;5069388;28;20527;-80
2023/06/18 04:41:02;;;;;;;15.60;11.03;;;25.40;56.80;;;;;;5075910;28;20461;-80
2023/06/18 04:43:32;;;;;;;14.30;10.87;;;25.50;56.80;;;;;;5067681;28;20576;-80
2023/06/18 04:45:59;;;;;;;12.23;10.27;;;25.40;56.80;;;;;;5062045;28;20445;-80
2023/06/18 04:48:28;;;;;;;12.80;10.23;;;25.40;56.80;;;;;;5069779;28;20421;-80
2023/06/18 04:50:56;;;;;;;14.53;11.13;;;25.40;56.80;;;;;;5060527;28;20454;-80
2023/06/18 04:53:24;;;;;;;13.63;10.80;;;25.50;57.00;;;;;;5071526;28;20440;-79
2023/06/18 04:55:52;;;;;;;12.70;10.50;;;25.50;56.90;;;;;;5093429;28;20438;-79
2023/06/18 04:58:20;;;;;;;14.53;11.30;;;25.50;56.80;;;;;;5076398;28;20447;-80
2023/06/18 05:00:50;;;;;;;14.10;10.30;;;25.50;56.70;;;;;;5068277;28;20522;-80
2023/06/18 05:03:18;;;;;;;14.60;11.80;;;25.40;56.90;;;;;;5074907;28;20564;-80
2023/06/18 05:05:46;;;;;;;17.30;11.07;;;25.50;56.80;;;;;;5075550;28;20417;-79
2023/06/18 05:08:14;;;;;;;17.30;12.00;;;25.50;56.80;;;;;;5073983;28;20434;-80
2023/06/18 05:10:42;;;;;;;18.43;14.17;;;25.50;56.90;;;;;;5065626;28;20847;-80
2023/06/18 05:13:12;;;;;;;17.37;14.73;;;25.60;57.00;;;;;;5075554;28;20440;-80
2023/06/18 05:15:40;;;;;;;16.07;13.30;;;25.60;56.80;;;;;;5066524;28;20446;-80
2023/06/18 05:18:09;;;;;;;14.17;11.80;;;25.50;56.90;;;;;;5075035;28;20441;-80
2023/06/18 05:20:38;;;;;;;12.83;10.77;;;25.60;56.90;;;;;;5075146;28;20421;-80
2023/06/18 05:23:06;;;;;;;13.47;11.10;;;25.60;57.00;;;;;;5081008;28;20480;-80
2023/06/18 05:25:36;;;;;;;12.60;11.13;;;25.60;56.40;;;;;;5075670;28;20966;-80
2023/06/18 05:28:04;;;;;;;11.63;9.90;;;25.60;56.90;;;;;;5088822;28;20467;-80
2023/06/18 05:30:32;;;;;;;13.00;10.80;;;25.60;56.70;;;;;;5071584;28;20424;-80
2023/06/18 05:33:00;;;;;;;16.43;11.53;;;25.60;56.60;;;;;;5078811;28;20531;-80
2023/06/18 05:35:30;;;;;;;13.93;10.80;;;25.60;56.80;;;;;;5080697;28;20492;-80
2023/06/18 05:37:58;;;;;;;13.63;11.20;;;25.50;56.70;;;;;;5072803;28;20411;-80
2023/06/18 05:40:26;;;;;;;13.10;11.13;;;25.50;57.10;;;;;;5079914;28;20529;-80
2023/06/18 05:42:55;;;;;;;14.23;10.90;;;25.60;57.00;;;;;;5071842;28;20485;-80
2023/06/18 05:45:23;;;;;;;13.07;11.30;;;25.60;56.90;;;;;;5071284;28;20445;-80
2023/06/18 05:47:52;;;;;;;14.00;11.47;;;25.60;56.80;;;;;;5075959;28;20458;-80
2023/06/18 05:50:20;;;;;;;18.40;11.93;;;25.60;57.00;;;;;;5075160;28;20541;-80
2023/06/18 05:52:50;;;;;;;15.93;12.20;;;25.60;56.70;;;;;;5088965;28;20432;-80
2023/06/18 05:55:18;;;;;;;14.43;11.80;;;25.50;56.80;;;;;;5085266;28;20507;-80
2023/06/18 05:57:47;;;;;;;16.43;12.23;;;25.50;57.00;;;;;;5084933;28;20451;-79
2023/06/18 06:00:16;;;;;;;15.47;12.70;;;25.60;57.20;;;;;;5079342;28;20445;-80
2023/06/18 06:02:44;;;;;;;16.20;11.93;;;25.60;57.10;;;;;;5077865;28;20468;-80
2023/06/18 06:05:12;;;;;;;19.20;12.77;;;25.60;57.30;;;;;;5083263;28;20428;-79
2023/06/18 06:07:40;;;;;;;14.70;12.50;;;25.50;56.90;;;;;;5085209;28;20448;-79
2023/06/18 06:10:10;;;;;;;18.40;13.57;;;25.60;57.40;;;;;;5076727;28;20449;-80
2023/06/18 06:12:38;;;;;;;15.07;11.33;;;25.60;57.20;;;;;;5081797;28;20859;-79
2023/06/18 06:15:09;;;;;;;15.23;12.20;;;25.60;57.50;;;;;;5078148;28;20416;-79
2023/06/18 06:17:37;;;;;;;15.10;11.80;;;25.70;57.50;;;;;;5079158;28;20416;-80
2023/06/18 06:20:07;;;;;;;15.37;12.83;;;25.70;57.40;;;;;;5076254;28;20415;-80
2023/06/18 06:22:35;;;;;;;16.03;12.80;;;25.60;57.60;;;;;;5077217;28;20448;-80
2023/06/18 06:25:03;;;;;;;13.73;11.13;;;25.70;57.10;;;;;;5091216;28;20427;-80
2023/06/18 06:27:34;;;;;;;16.03;13.20;;;25.70;57.00;;;;;;5090515;28;20416;-80
2023/06/18 06:30:03;;;;;;;14.80;12.40;;;25.60;56.90;;;;;;5076404;28;20412;-80
2023/06/18 06:32:31;;;;;;;16.60;12.77;;;25.70;56.60;;;;;;5086152;28;20446;-80
2023/06/18 06:34:59;;;;;;;14.83;12.23;;;25.70;56.90;;;;;;5071279;28;20445;-80
2023/06/18 06:37:29;;;;;;;14.27;11.50;;;25.70;56.70;;;;;;5078428;28;20437;-80
2023/06/18 06:39:57;;;;;;;14.50;11.63;;;25.70;56.30;;;;;;5072436;28;20454;-80
2023/06/18 06:42:26;;;;;;;13.90;11.10;;;25.80;56.40;;;;;;5086684;28;20533;-80
2023/06/18 06:44:55;;;;;;;16.13;11.10;;;25.80;56.30;;;;;;5087416;28;20473;-80
2023/06/18 06:47:23;;;;;;;14.90;11.30;;;25.90;56.20;;;;;;5085985;28;20441;-80
2023/06/18 06:49:51;;;;;;;12.60;11.00;;;26.00;56.00;;;;;;5068641;28;20454;-80
2023/06/18 06:52:20;;;;;;;14.37;11.93;;;26.00;55.60;;;;;;5079055;28;20473;-80
2023/06/18 06:54:50;;;;;;;10.73;9.63;;;26.10;55.40;;;;;;5078703;28;20457;-81
2023/06/18 06:57:19;;;;;;;16.00;12.40;;;26.10;55.80;;;;;;5073601;28;20420;-81
2023/06/18 06:59:47;;;;;;;12.67;11.00;;;26.20;55.40;;;;;;5070846;28;20531;-80
2023/06/18 07:02:17;;;;;;;13.20;10.60;;;26.20;55.10;;;;;;5064492;28;20454;-80
2023/06/18 07:04:47;;;;;;;11.73;10.53;;;26.30;54.90;;;;;;5059503;28;20459;-80
2023/06/18 07:07:16;;;;;;;11.73;10.53;;;26.40;54.80;;;;;;5072825;28;20443;-81
2023/06/18 07:09:44;;;;;;;12.97;11.40;;;26.50;54.50;;;;;;5075242;28;20412;-80
2023/06/18 07:12:12;;;;;;;12.30;11.00;;;26.50;54.40;;;;;;5092696;28;20451;-80
2023/06/18 07:14:40;;;;;;;12.57;11.27;;;26.60;54.10;;;;;;5071643;28;20449;-81
2023/06/18 07:17:08;;;;;;;12.50;10.53;;;26.60;54.00;;;;;;5079824;28;20455;-81
2023/06/18 07:19:39;;;;;;;12.73;11.00;;;26.60;53.80;;;;;;5062846;28;20455;-80
2023/06/18 07:22:07;;;;;;;11.30;10.23;;;26.70;53.40;;;;;;5076184;28;20504;-81
2023/06/18 07:24:35;;;;;;;10.90;9.40;;;26.80;53.20;;;;;;5071034;28;20452;-80
2023/06/18 07:27:04;;;;;;;10.80;9.70;;;26.90;53.00;;;;;;5075372;28;20415;-81
2023/06/18 07:29:32;;;;;;;14.10;10.47;;;26.90;52.90;;;;;;5081498;28;20421;-81
2023/06/18 07:32:00;;;;;;;12.03;9.40;;;27.00;52.50;;;;;;5066773;28;20534;-80
2023/06/18 07:34:28;;;;;;;10.87;9.83;;;27.10;52.20;;;;;;5070658;28;20432;-81
2023/06/18 07:36:58;;;;;;;11.60;10.00;;;27.20;52.00;;;;;;5071673;28;20412;-81
2023/06/18 07:39:26;;;;;;;13.83;10.90;;;27.20;51.90;;;;;;5058996;28;20447;-81
2023/06/18 07:41:54;;;;;;;11.63;10.07;;;27.30;51.50;;;;;;5063820;28;20448;-81
2023/06/18 07:44:22;;;;;;;10.97;9.90;;;27.30;51.30;;;;;;5058745;28;20500;-81
2023/06/18 07:46:50;;;;;;;9.20;8.30;;;27.40;51.20;;;;;;5058684;28;20440;-81
2023/06/18 07:49:20;;;;;;;10.40;9.30;;;27.50;51.00;;;;;;5060440;28;20417;-80
2023/06/18 07:51:49;;;;;;;10.13;9.13;;;27.60;51.10;;;;;;5066482;28;20474;-81
2023/06/18 07:54:18;;;;;;;11.73;9.10;;;27.70;50.70;;;;;;5061963;28;20492;-80
2023/06/18 07:56:46;;;;;;;10.63;9.50;;;27.70;50.50;;;;;;5061177;28;20485;-80
2023/06/18 07:59:15;;;;;;;9.80;8.80;;;27.80;49.90;;;;;;5083358;28;20423;-80
2023/06/18 08:01:43;;;;;;;9.43;8.20;;;27.90;50.20;;;;;;5075909;28;20481;-80
2023/06/18 08:04:11;;;;;;;9.87;8.87;;;28.00;49.90;;;;;;5063300;28;20448;-81
2023/06/18 08:06:39;;;;;;;8.90;8.10;;;28.10;49.60;;;;;;5068121;28;20450;-80
2023/06/18 08:09:07;;;;;;;9.27;8.47;;;28.10;49.30;;;;;;5065974;28;20506;-81
2023/06/18 08:11:36;;;;;;;10.67;8.63;;;28.30;49.20;;;;;;5057443;28;20489;-80
2023/06/18 08:14:04;;;;;;;12.10;8.53;;;28.30;48.90;;;;;;5056569;28;20466;-81
2023/06/18 08:16:31;;;;;;;9.20;8.40;;;28.40;48.80;;;;;;5061689;28;20482;-80
2023/06/18 08:18:59;;;;;;;9.47;8.53;;;28.50;48.70;;;;;;5071114;28;20419;-81
2023/06/18 08:21:27;;;;;;;9.83;8.83;;;28.60;48.40;;;;;;5060330;28;20441;-81
2023/06/18 08:23:55;;;;;;;9.97;8.57;;;28.70;48.00;;;;;;5056771;28;20546;-80
2023/06/18 08:26:24;;;;;;;9.33;8.43;;;28.80;48.00;;;;;;5059682;28;20466;-81
2023/06/18 08:28:53;;;;;;;8.43;7.67;;;28.90;47.60;;;;;;5065816;28;20455;-80
2023/06/18 08:31:22;;;;;;;8.50;7.70;;;29.00;47.30;;;;;;5057950;28;20466;-80
2023/06/18 08:33:50;;;;;;;8.77;7.90;;;29.00;47.40;;;;;;5058829;28;20469;-81
2023/06/18 08:36:19;;;;;;;9.00;8.20;;;29.00;47.30;;;;;;5062532;28;20890;-80
2023/06/18 08:38:48;;;;;;;9.00;7.80;;;29.10;47.20;;;;;;5064818;28;20855;-81
2023/06/18 08:41:16;;;;;;;8.93;8.13;;;29.20;47.20;;;;;;5070795;28;20420;-81
2023/06/18 08:43:45;;;;;;;8.10;7.40;;;29.30;46.60;;;;;;5059238;28;20530;-81
2023/06/18 08:46:16;;;;;;;8.53;7.70;;;29.40;46.30;;;;;;5063925;28;20446;-81
2023/06/18 08:48:46;;;;;;;10.30;7.63;;;29.50;46.30;;;;;;5055377;28;20442;-81
2023/06/18 08:51:14;;;;;;;8.73;7.83;;;29.50;46.00;;;;;;5058175;28;20460;-81
2023/06/18 08:53:43;;;;;;;8.40;7.57;;;29.60;45.80;;;;;;5066436;28;20508;-80
2023/06/18 08:56:11;;;;;;;10.90;8.57;;;29.70;46.10;;;;;;5060392;28;20446;-82
2023/06/18 08:58:42;;;;;;;8.93;8.03;;;29.80;45.70;;;;;;5062657;28;20522;-81
2023/06/18 09:01:10;;;;;;;8.93;7.90;;;29.90;45.50;;;;;;5055860;28;20469;-82
2023/06/18 09:03:39;;;;;;;8.87;8.07;;;29.90;45.50;;;;;;5055560;28;20528;-83
2023/06/18 09:06:08;;;;;;;8.73;8.03;;;30.10;45.10;;;;;;5060067;28;20437;-82
2023/06/18 09:08:37;;;;;;;8.67;7.97;;;30.20;44.50;;;;;;5068283;28;20450;-81
2023/06/18 09:11:05;;;;;;;8.57;7.77;;;30.30;44.40;;;;;;5057696;28;20482;-81
2023/06/18 09:13:33;;;;;;;8.07;7.37;;;30.30;44.40;;;;;;5054514;28;20496;-81
2023/06/18 09:16:01;;;;;;;7.63;6.83;;;30.40;44.50;;;;;;5061218;28;20442;-80
2023/06/18 09:18:30;;;;;;;9.93;7.63;;;30.50;44.60;;;;;;5066695;28;20442;-80
2023/06/18 09:20:59;;;;;;;8.23;7.30;;;30.50;44.60;;;;;;5066772;28;20470;-80
2023/06/18 09:23:27;;;;;;;7.77;7.17;;;30.60;44.40;;;;;;5054936;28;20553;-82
2023/06/18 09:25:57;;;;;;;9.87;7.87;;;30.70;44.40;;;;;;5061977;28;20466;-81
2023/06/18 09:28:25;;;;;;;8.20;7.40;;;30.70;44.20;;;;;;5064574;28;20484;-82
2023/06/18 09:30:54;;;;;;;9.53;7.63;;;30.80;44.00;;;;;;5061797;28;20450;-81
2023/06/18 09:33:27;;;;;;;8.00;7.37;;;30.90;43.90;;;;;;5066405;28;20496;-81
2023/06/18 09:36:01;;;;;;;7.73;7.07;;;31.00;43.40;;;;;;5067912;28;20423;-81
2023/06/18 09:38:33;;;;;;;7.87;7.13;;;31.10;43.40;;;;;;5074197;28;20476;-82
2023/06/18 09:41:02;;;;;;;8.03;7.33;;;31.20;43.40;;;;;;5061962;28;20443;-82
2023/06/18 09:43:35;;;;;;;8.00;7.40;;;31.20;43.30;;;;;;5083971;28;20460;-81
2023/06/18 09:46:07;;;;;;;9.03;7.97;;;31.30;42.80;;;;;;5061383;28;20532;-81
2023/06/18 09:48:36;;;;;;;10.03;7.20;;;31.50;42.10;;;;;;5064498;28;20489;-81
2023/06/18 09:51:05;;;;;;;8.80;7.87;;;31.50;42.20;;;;;;5060870;28;20500;-81
2023/06/18 09:53:33;;;;;;;7.30;6.60;;;31.50;42.20;;;;;;5075593;28;20465;-81
2023/06/18 09:56:09;;;;;;;8.50;6.77;;;31.60;42.20;;;;;;5061768;28;20965;-81
2023/06/18 09:58:44;;;;;;;7.70;6.43;;;31.70;42.00;;;;;;5072606;28;20468;-81
2023/06/18 10:01:12;;;;;;;10.80;7.43;;;31.80;41.90;;;;;;5061435;28;20941;-81
2023/06/18 10:03:42;;;;;;;7.57;6.80;;;31.80;41.80;;;;;;5064130;28;20504;-81
2023/06/18 10:06:17;;;;;;;7.20;6.60;;;31.90;41.80;;;;;;5074618;28;20524;-81
2023/06/18 10:08:46;;;;;;;8.30;7.07;;;32.00;41.60;;;;;;5087845;28;20456;-81
2023/06/18 10:11:16;;;;;;;7.73;7.07;;;32.00;41.60;;;;;;5086824;28;20480;-81
2023/06/18 10:13:47;;;;;;;7.50;6.90;;;32.10;41.50;;;;;;5081982;28;20480;-82
2023/06/18 10:16:17;;;;;;;7.40;6.90;;;32.20;41.40;;;;;;5089920;28;20456;-79
2023/06/18 10:19:00;;;;;;;8.80;7.33;;;32.30;41.30;;;;;;5074470;28;20445;-81
2023/06/18 10:21:30;;;;;;;7.10;6.40;;;32.40;40.90;;;;;;5079575;28;20429;-81
2023/06/18 10:24:02;;;;;;;8.43;6.67;;;32.50;40.60;;;;;;5079884;28;20461;-81
2023/06/18 10:26:30;;;;;;;6.90;6.40;;;32.50;39.40;;;;;;5066197;28;20557;-82
2023/06/18 10:28:58;;;;;;;6.73;6.23;;;32.70;38.40;;;;;;5080799;28;20465;-81
2023/06/18 10:31:26;;;;;;;6.93;6.33;;;32.70;38.50;;;;;;5079039;28;20469;-82
2023/06/18 10:33:54;;;;;;;7.47;6.77;;;32.80;38.60;;;;;;5077361;28;20526;-81
2023/06/18 10:36:23;;;;;;;7.53;6.83;;;32.80;38.40;;;;;;5073193;28;20893;-81
2023/06/18 10:38:53;;;;;;;6.83;6.33;;;32.90;37.20;;;;;;5072883;28;20450;-79
2023/06/18 10:41:24;;;;;;;6.30;5.90;;;33.00;36.80;;;;;;5072520;28;20536;-82
2023/06/18 10:43:52;;;;;;;6.80;5.87;;;33.10;37.20;;;;;;5070260;28;20474;-79
2023/06/18 10:46:21;;;;;;;6.77;5.90;;;33.10;37.00;;;;;;5076394;28;20477;-82
2023/06/18 10:49:13;;;;;;;7.33;6.73;;;33.20;37.00;;;;;;5077280;28;20458;-81
2023/06/18 10:51:42;;;;;;;7.13;6.43;;;33.30;36.80;;;;;;5079087;28;20518;-81
2023/06/18 10:54:22;;;;;;;6.83;6.20;;;33.30;36.90;;;;;;5081751;28;20488;-80
2023/06/18 10:56:55;;;;;;;7.07;6.47;;;33.40;36.80;;;;;;5079215;28;20442;-80
2023/06/18 10:59:36;;;;;;;7.80;6.30;;;33.50;36.90;;;;;;5068866;28;20534;-80
2023/06/18 11:02:05;;;;;;;5.90;5.50;;;33.60;36.80;;;;;;5077354;28;20472;-80
2023/06/18 11:04:34;;;;;;;6.27;5.83;;;33.60;36.60;;;;;;5082802;28;20477;-81
2023/06/18 11:07:19;;;;;;;6.00;5.50;;;33.70;36.50;;;;;;5079579;28;20865;-80
2023/06/18 11:09:51;;;;;;;7.03;5.17;;;33.80;36.40;;;;;;5078670;28;20453;-79
2023/06/18 11:12:20;;;;;;;6.30;5.70;;;33.80;36.20;;;;;;5074488;28;20466;-80
2023/06/18 11:15:21;;;;;;;5.87;5.30;;;33.90;36.00;;;;;;5065763;28;20509;-81
2023/06/18 11:17:51;;;;;;;6.60;5.97;;;34.00;35.80;;;;;;5008557;28;20466;-81
2023/06/18 11:20:20;;;;;;;6.20;5.80;;;34.00;35.60;;;;;;5010122;28;20516;-81
2023/06/18 11:22:49;;;;;;;5.70;5.40;;;34.10;35.40;;;;;;5048066;28;20452;-80
2023/06/18 11:25:18;;;;;;;11.00;7.47;;;34.20;35.10;;;;;;5071878;28;20557;-82
2023/06/18 11:27:48;;;;;;;8.90;8.00;;;34.20;35.00;;;;;;5074841;28;20449;-81
2023/06/18 11:30:18;;;;;;;7.83;7.10;;;34.30;34.40;;;;;;5076053;28;20523;-81
2023/06/18 11:32:46;;;;;;;8.23;7.50;;;34.30;33.70;;;;;;5073023;28;20827;-82
2023/06/18 11:35:14;;;;;;;7.93;7.27;;;34.40;33.00;;;;;;5080548;28;20541;-82
2023/06/18 11:37:44;;;;;;;8.00;6.70;;;34.50;32.80;;;;;;5069557;28;20514;-81
2023/06/18 11:40:12;;;;;;;6.60;6.10;;;34.50;33.40;;;;;;5080798;28;20453;-81
2023/06/18 11:42:49;;;;;;;6.67;6.00;;;34.60;33.60;;;;;;5076299;28;20469;-82
2023/06/18 11:45:17;;;;;;;6.17;5.77;;;34.60;33.40;;;;;;5067631;28;20528;-82
2023/06/18 11:47:47;;;;;;;6.30;5.70;;;34.70;33.60;;;;;;5064714;28;20454;-83
2023/06/18 11:50:15;;;;;;;6.17;5.77;;;34.70;33.70;;;;;;5077182;28;20445;-82
2023/06/18 11:52:43;;;;;;;6.23;5.77;;;34.80;33.80;;;;;;5062164;28;20460;-83
2023/06/18 11:55:11;;;;;;;6.00;5.57;;;34.80;33.60;;;;;;5066332;28;20457;-81
2023/06/18 11:57:39;;;;;;;6.20;5.70;;;34.80;33.50;;;;;;5072974;28;20462;-82
2023/06/18 12:00:10;;;;;;;5.40;5.00;;;34.90;33.60;;;;;;5064686;28;20446;-81
2023/06/18 12:02:39;;;;;;;5.37;5.07;;;34.90;33.10;;;;;;5063202;28;20501;-82
2023/06/18 12:05:09;;;;;;;6.03;5.00;;;34.90;33.30;;;;;;5072618;28;20454;-83
2023/06/18 12:07:39;;;;;;;7.67;5.20;;;35.00;32.90;;;;;;5067540;28;20470;-81
2023/06/18 12:10:09;;;;;;;7.27;5.17;;;35.00;33.00;;;;;;5066237;28;20454;-82
2023/06/18 12:12:44;;;;;;;5.17;4.43;;;35.10;32.30;;;;;;5073578;28;20524;-81
2023/06/18 12:15:19;;;;;;;6.43;4.80;;;35.10;32.80;;;;;;5067141;28;21293;-81
2023/06/18 12:17:53;;;;;;;5.50;5.10;;;35.10;33.00;;;;;;5068140;28;20536;-82
2023/06/18 12:20:22;;;;;;;6.40;4.87;;;35.10;32.80;;;;;;5064027;28;20453;-82
2023/06/18 12:22:51;;;;;;;6.00;5.40;;;35.10;32.70;;;;;;5073952;28;20478;-82
2023/06/18 12:25:19;;;;;;;6.07;5.67;;;35.20;32.30;;;;;;5066491;28;20449;-82
2023/06/18 12:27:48;;;;;;;6.17;5.67;;;35.20;32.00;;;;;;5065479;28;20557;-82
2023/06/18 12:30:17;;;;;;;5.63;5.30;;;35.20;32.00;;;;;;5081991;28;20456;-81
2023/06/18 12:33:00;;;;;;;5.90;5.30;;;35.20;32.00;;;;;;5074724;28;20442;-81
2023/06/18 12:35:30;;;;;;;5.63;5.13;;;35.20;31.70;;;;;;5069121;28;20464;-82
2023/06/18 12:38:01;;;;;;;5.50;5.10;;;35.30;31.70;;;;;;5073478;28;20530;-81
2023/06/18 12:40:31;;;;;;;7.47;4.90;;;35.30;32.00;;;;;;5074201;28;20436;-83
2023/06/18 12:42:59;;;;;;;4.90;4.60;;;35.30;31.60;;;;;;5069809;28;20484;-83
2023/06/18 12:45:31;;;;;;;5.10;4.80;;;35.30;31.60;;;;;;5077207;28;20502;-82